Bloomingdale, Illinois
Current Conditions -  °F | °C
As of 9:52 AM on Saturday 25 Oct 2014 (Local Time) from KDPA Reporting Station
Clear Clear  
Wind Chill: 62°   Ceiling: Unl
Heat Index: 62°   Visibility: 7mi
Dew Point: 53°   Wind: 12mph
Humidity: 72%   Direction: 300°WNW
Pressure: 29.95"   Gusts: NA
Location:  41.95°N, 88.08°W
Report Text: KDPA 251452Z 30010KT 7SM CLR 17/12 A2995 RMK AO2 SLP141 T01670117 53011
Loading
Personal Weather Stations






























Interactive Weather Map
Tropical Storm Tracking
New forecast layout! Learn more

10-Day Weather Forecast

Advertisements
Track Severe Weather on mobile